sensor_id;sensor_type;location;lat;lon;timestamp;pressure;altitude;pressure_sealevel;temperature;humidity
11692;BME280;33659;42.672;23.354;2023-03-04T00:00:52;94367.94;;;7.71;78.91
11692;BME280;33659;42.672;23.354;2023-03-04T00:03:18;94370.84;;;7.78;78.48
11692;BME280;33659;42.672;23.354;2023-03-04T00:05:45;94366.25;;;7.83;78.03
11692;BME280;33659;42.672;23.354;2023-03-04T00:08:12;94366.41;;;7.87;77.93
11692;BME280;33659;42.672;23.354;2023-03-04T00:10:42;94368.25;;;7.86;77.49
11692;BME280;33659;42.672;23.354;2023-03-04T00:13:08;94362.56;;;7.93;77.52
11692;BME280;33659;42.672;23.354;2023-03-04T00:15:35;94352.94;;;7.85;77.38
11692;BME280;33659;42.672;23.354;2023-03-04T00:18:01;94353.25;;;7.92;77.57
11692;BME280;33659;42.672;23.354;2023-03-04T00:20:28;94352.16;;;7.93;77.21
11692;BME280;33659;42.672;23.354;2023-03-04T00:22:55;94345.13;;;7.94;77.13
11692;BME280;33659;42.672;23.354;2023-03-04T00:25:21;94346.50;;;7.91;77.46
11692;BME280;33659;42.672;23.354;2023-03-04T00:27:49;94349.56;;;7.84;77.21
11692;BME280;33659;42.672;23.354;2023-03-04T00:30:16;94348.97;;;7.79;77.64
11692;BME280;33659;42.672;23.354;2023-03-04T00:32:43;94347.16;;;7.71;78.01
11692;BME280;33659;42.672;23.354;2023-03-04T00:35:10;94348.38;;;7.73;78.18
11692;BME280;33659;42.672;23.354;2023-03-04T00:37:36;94340.59;;;7.73;78.15
11692;BME280;33659;42.672;23.354;2023-03-04T00:40:04;94340.59;;;7.73;78.33
11692;BME280;33659;42.672;23.354;2023-03-04T00:42:31;94347.75;;;7.76;78.17
11692;BME280;33659;42.672;23.354;2023-03-04T00:44:59;94344.41;;;7.76;78.17
11692;BME280;33659;42.672;23.354;2023-03-04T00:47:26;94342.41;;;7.73;77.58
11692;BME280;33659;42.672;23.354;2023-03-04T00:49:52;94349.16;;;7.65;78.06
11692;BME280;33659;42.672;23.354;2023-03-04T00:52:19;94344.59;;;7.62;78.03
11692;BME280;33659;42.672;23.354;2023-03-04T00:54:46;94344.72;;;7.66;78.11
11692;BME280;33659;42.672;23.354;2023-03-04T00:57:12;94332.19;;;7.68;77.86
11692;BME280;33659;42.672;23.354;2023-03-04T00:59:39;94341.97;;;7.62;77.89
11692;BME280;33659;42.672;23.354;2023-03-04T01:02:09;94345.78;;;7.65;78.04
11692;BME280;33659;42.672;23.354;2023-03-04T01:04:36;94339.34;;;7.71;77.74
11692;BME280;33659;42.672;23.354;2023-03-04T01:07:03;94342.59;;;7.68;77.77
11692;BME280;33659;42.672;23.354;2023-03-04T01:09:30;94341.66;;;7.64;77.67
11692;BME280;33659;42.672;23.354;2023-03-04T01:11:57;94338.63;;;7.62;77.71
11692;BME280;33659;42.672;23.354;2023-03-04T01:14:24;94341.50;;;7.69;77.94
11692;BME280;33659;42.672;23.354;2023-03-04T01:16:50;94334.31;;;7.74;77.92
11692;BME280;33659;42.672;23.354;2023-03-04T01:19:19;94327.41;;;7.78;77.49
11692;BME280;33659;42.672;23.354;2023-03-04T01:21:45;94324.09;;;7.69;77.77
11692;BME280;33659;42.672;23.354;2023-03-04T01:24:12;94323.31;;;7.69;77.77
11692;BME280;33659;42.672;23.354;2023-03-04T01:26:39;94316.88;;;7.75;77.69
11692;BME280;33659;42.672;23.354;2023-03-04T01:29:05;94323.75;;;7.79;77.75
11692;BME280;33659;42.672;23.354;2023-03-04T01:31:32;94321.13;;;7.88;77.26
11692;BME280;33659;42.672;23.354;2023-03-04T01:33:59;94323.09;;;7.91;76.25
11692;BME280;33659;42.672;23.354;2023-03-04T01:36:27;94320.06;;;7.89;75.93
11692;BME280;33659;42.672;23.354;2023-03-04T01:38:53;94317.00;;;7.87;75.44
11692;BME280;33659;42.672;23.354;2023-03-04T01:41:23;94318.53;;;7.88;75.53
11692;BME280;33659;42.672;23.354;2023-03-04T01:43:50;94302.94;;;7.88;75.76
11692;BME280;33659;42.672;23.354;2023-03-04T01:46:17;94303.06;;;7.92;75.56
11692;BME280;33659;42.672;23.354;2023-03-04T01:48:45;94303.84;;;7.83;75.39
11692;BME280;33659;42.672;23.354;2023-03-04T01:51:13;94296.66;;;7.89;75.40
11692;BME280;33659;42.672;23.354;2023-03-04T01:53:43;94305.81;;;7.95;75.57
11692;BME280;33659;42.672;23.354;2023-03-04T01:56:15;94305.81;;;7.95;75.18
11692;BME280;33659;42.672;23.354;2023-03-04T01:58:42;94305.19;;;7.98;75.05
11692;BME280;33659;42.672;23.354;2023-03-04T02:01:10;94309.78;;;8.01;74.71
11692;BME280;33659;42.672;23.354;2023-03-04T02:03:37;94305.00;;;8.03;74.63
11692;BME280;33659;42.672;23.354;2023-03-04T02:06:04;94300.88;;;8.02;74.54
11692;BME280;33659;42.672;23.354;2023-03-04T02:08:31;94297.97;;;8.04;74.47
11692;BME280;33659;42.672;23.354;2023-03-04T02:10:59;94302.56;;;8.07;74.24
11692;BME280;33659;42.672;23.354;2023-03-04T02:13:26;94300.09;;;8.10;74.20
11692;BME280;33659;42.672;23.354;2023-03-04T02:15:52;94300.41;;;8.09;73.68
11692;BME280;33659;42.672;23.354;2023-03-04T02:18:22;94297.38;;;8.07;73.95
11692;BME280;33659;42.672;23.354;2023-03-04T02:20:55;94295.84;;;7.97;74.17
11692;BME280;33659;42.672;23.354;2023-03-04T02:23:29;94293.44;;;7.92;74.43
11692;BME280;33659;42.672;23.354;2023-03-04T02:26:16;94295.44;;;7.86;74.65
11692;BME280;33659;42.672;23.354;2023-03-04T02:28:45;94295.78;;;7.76;75.17
11692;BME280;33659;42.672;23.354;2023-03-04T02:31:31;94294.09;;;7.72;75.19
11692;BME280;33659;42.672;23.354;2023-03-04T02:34:00;94300.38;;;7.71;75.34
11692;BME280;33659;42.672;23.354;2023-03-04T02:36:28;94299.63;;;7.70;75.43
11692;BME280;33659;42.672;23.354;2023-03-04T02:39:01;94296.09;;;7.66;75.83
11692;BME280;33659;42.672;23.354;2023-03-04T02:41:29;94284.97;;;7.57;75.68
11692;BME280;33659;42.672;23.354;2023-03-04T02:43:56;94281.91;;;7.64;76.04
11692;BME280;33659;42.672;23.354;2023-03-04T02:46:23;94287.53;;;7.66;75.75
11692;BME280;33659;42.672;23.354;2023-03-04T02:48:50;94281.41;;;7.70;75.62
11692;BME280;33659;42.672;23.354;2023-03-04T02:51:17;94280.22;;;7.68;75.71
11692;BME280;33659;42.672;23.354;2023-03-04T02:53:44;94283.56;;;7.59;75.60
11692;BME280;33659;42.672;23.354;2023-03-04T02:56:10;94281.44;;;7.62;75.68
11692;BME280;33659;42.672;23.354;2023-03-04T02:58:38;94287.84;;;7.64;75.43
11692;BME280;33659;42.672;23.354;2023-03-04T03:01:05;94284.19;;;7.65;75.28
11692;BME280;33659;42.672;23.354;2023-03-04T03:03:32;94293.97;;;7.68;75.25
11692;BME280;33659;42.672;23.354;2023-03-04T03:05:59;94280.66;;;7.70;74.95
11692;BME280;33659;42.672;23.354;2023-03-04T03:08:25;94283.41;;;7.65;74.94
11692;BME280;33659;42.672;23.354;2023-03-04T03:10:52;94284.50;;;7.64;75.55
11692;BME280;33659;42.672;23.354;2023-03-04T03:13:19;94282.81;;;7.59;75.21
11692;BME280;33659;42.672;23.354;2023-03-04T03:15:47;94284.88;;;7.36;76.30
11692;BME280;33659;42.672;23.354;2023-03-04T03:18:13;94281.84;;;7.17;76.91
11692;BME280;33659;42.672;23.354;2023-03-04T03:20:40;94280.59;;;7.05;77.75
11692;BME280;33659;42.672;23.354;2023-03-04T03:23:07;94278.47;;;7.07;78.41
11692;BME280;33659;42.672;23.354;2023-03-04T03:25:34;94284.75;;;7.15;78.01
11692;BME280;33659;42.672;23.354;2023-03-04T03:28:00;94282.28;;;7.19;77.41
11692;BME280;33659;42.672;23.354;2023-03-04T03:30:27;94286.25;;;7.25;77.40
11692;BME280;33659;42.672;23.354;2023-03-04T03:32:55;94275.06;;;7.33;77.15
11692;BME280;33659;42.672;23.354;2023-03-04T03:35:22;94274.59;;;7.40;76.96
11692;BME280;33659;42.672;23.354;2023-03-04T03:37:49;94276.28;;;7.44;76.86
11692;BME280;33659;42.672;23.354;2023-03-04T03:40:15;94267.88;;;7.47;76.54
11692;BME280;33659;42.672;23.354;2023-03-04T03:42:42;94268.97;;;7.38;76.44
11692;BME280;33659;42.672;23.354;2023-03-04T03:45:09;94268.69;;;7.30;76.75
11692;BME280;33659;42.672;23.354;2023-03-04T03:47:37;94264.88;;;7.19;77.46
11692;BME280;33659;42.672;23.354;2023-03-04T03:50:05;94269.28;;;7.19;77.67
11692;BME280;33659;42.672;23.354;2023-03-04T03:52:32;94272.34;;;7.21;77.70
11692;BME280;33659;42.672;23.354;2023-03-04T03:54:59;94269.00;;;7.29;77.57
11692;BME280;33659;42.672;23.354;2023-03-04T03:57:27;94261.63;;;7.40;76.91
11692;BME280;33659;42.672;23.354;2023-03-04T03:59:54;94260.53;;;7.49;76.33
11692;BME280;33659;42.672;23.354;2023-03-04T04:02:20;94264.50;;;7.55;76.11
11692;BME280;33659;42.672;23.354;2023-03-04T04:04:47;94260.66;;;7.62;75.84
11692;BME280;33659;42.672;23.354;2023-03-04T04:07:16;94258.94;;;7.66;75.65
11692;BME280;33659;42.672;23.354;2023-03-04T04:09:42;94258.03;;;7.70;75.47
11692;BME280;33659;42.672;23.354;2023-03-04T04:12:10;94255.59;;;7.74;75.24
11692;BME280;33659;42.672;23.354;2023-03-04T04:14:39;94265.03;;;7.78;75.26
11692;BME280;33659;42.672;23.354;2023-03-04T04:17:05;94254.94;;;7.77;74.91
11692;BME280;33659;42.672;23.354;2023-03-04T04:19:32;94220.66;;;7.54;74.84
11692;BME280;33659;42.672;23.354;2023-03-04T04:21:59;94250.38;;;7.74;74.93
11692;BME280;33659;42.672;23.354;2023-03-04T04:24:27;94253.44;;;7.76;74.99
11692;BME280;33659;42.672;23.354;2023-03-04T04:26:53;94257.72;;;7.72;74.79
11692;BME280;33659;42.672;23.354;2023-03-04T04:29:21;94257.63;;;7.51;75.11
11692;BME280;33659;42.672;23.354;2023-03-04T04:31:48;94244.09;;;7.28;75.98
11692;BME280;33659;42.672;23.354;2023-03-04T04:34:15;94260.31;;;7.16;76.74
11692;BME280;33659;42.672;23.354;2023-03-04T04:36:41;94256.03;;;6.86;77.89
11692;BME280;33659;42.672;23.354;2023-03-04T04:39:08;94256.94;;;6.64;78.69
11692;BME280;33659;42.672;23.354;2023-03-04T04:41:38;94258.91;;;6.49;79.58
11692;BME280;33659;42.672;23.354;2023-03-04T04:44:04;94258.59;;;6.34;80.51
11692;BME280;33659;42.672;23.354;2023-03-04T04:46:32;94250.94;;;6.29;80.70
11692;BME280;33659;42.672;23.354;2023-03-04T04:48:59;94247.41;;;6.24;81.28
11692;BME280;33659;42.672;23.354;2023-03-04T04:51:25;94250.00;;;6.24;81.36
11692;BME280;33659;42.672;23.354;2023-03-04T04:53:52;94251.09;;;6.32;81.55
11692;BME280;33659;42.672;23.354;2023-03-04T04:56:21;94253.69;;;6.32;81.28
11692;BME280;33659;42.672;23.354;2023-03-04T04:58:51;94265.88;;;6.23;81.50
11692;BME280;33659;42.672;23.354;2023-03-04T05:01:18;94251.38;;;6.13;81.77
11692;BME280;33659;42.672;23.354;2023-03-04T05:03:44;94260.66;;;6.06;82.21
11692;BME280;33659;42.672;23.354;2023-03-04T05:06:14;94272.22;;;6.00;82.49
11692;BME280;33659;42.672;23.354;2023-03-04T05:08:40;94267.63;;;5.96;82.77
11692;BME280;33659;42.672;23.354;2023-03-04T05:11:07;94278.88;;;5.92;82.80
11692;BME280;33659;42.672;23.354;2023-03-04T05:13:34;94282.22;;;5.92;83.12
11692;BME280;33659;42.672;23.354;2023-03-04T05:16:03;94280.44;;;5.93;83.36
11692;BME280;33659;42.672;23.354;2023-03-04T05:18:29;94284.13;;;6.09;83.36
11692;BME280;33659;42.672;23.354;2023-03-04T05:20:57;94276.25;;;6.23;82.63
11692;BME280;33659;42.672;23.354;2023-03-04T05:23:26;94279.81;;;6.44;82.05
11692;BME280;33659;42.672;23.354;2023-03-04T05:25:53;94272.03;;;6.62;81.04
11692;BME280;33659;42.672;23.354;2023-03-04T05:28:20;94283.34;;;6.74;80.32
11692;BME280;33659;42.672;23.354;2023-03-04T05:30:47;94279.41;;;6.86;79.89
11692;BME280;33659;42.672;23.354;2023-03-04T05:33:16;94291.47;;;6.99;79.24
11692;BME280;33659;42.672;23.354;2023-03-04T05:35:44;94298.00;;;7.14;78.81
11692;BME280;33659;42.672;23.354;2023-03-04T05:38:14;94296.31;;;7.26;77.85
11692;BME280;33659;42.672;23.354;2023-03-04T05:40:41;94293.88;;;7.30;77.54
11692;BME280;33659;42.672;23.354;2023-03-04T05:43:08;94292.03;;;7.39;77.31
11692;BME280;33659;42.672;23.354;2023-03-04T05:45:35;94300.59;;;7.48;77.08
11692;BME280;33659;42.672;23.354;2023-03-04T05:48:03;94292.59;;;7.53;76.34
11692;BME280;33659;42.672;23.354;2023-03-04T05:50:31;94297.81;;;7.62;76.14
11692;BME280;33659;42.672;23.354;2023-03-04T05:52:58;94306.19;;;7.68;75.93
11692;BME280;33659;42.672;23.354;2023-03-04T05:55:24;94304.50;;;7.72;75.62
11692;BME280;33659;42.672;23.354;2023-03-04T05:57:52;94298.84;;;7.70;75.67
11692;BME280;33659;42.672;23.354;2023-03-04T06:00:19;94311.22;;;7.81;75.11
11692;BME280;33659;42.672;23.354;2023-03-04T06:02:45;94309.97;;;7.87;75.29
11692;BME280;33659;42.672;23.354;2023-03-04T06:05:13;94309.94;;;7.96;75.25
11692;BME280;33659;42.672;23.354;2023-03-04T06:07:42;94319.41;;;8.01;74.68
11692;BME280;33659;42.672;23.354;2023-03-04T06:10:09;94313.72;;;8.07;74.83
11692;BME280;33659;42.672;23.354;2023-03-04T06:12:37;94315.09;;;8.13;74.62
11692;BME280;33659;42.672;23.354;2023-03-04T06:15:04;94318.28;;;8.19;74.45
11692;BME280;33659;42.672;23.354;2023-03-04T06:17:32;94319.91;;;8.24;74.42
11692;BME280;33659;42.672;23.354;2023-03-04T06:19:59;94319.31;;;8.27;73.78
11692;BME280;33659;42.672;23.354;2023-03-04T06:22:25;94319.31;;;8.27;74.03
11692;BME280;33659;42.672;23.354;2023-03-04T06:24:53;94323.00;;;8.26;73.58
11692;BME280;33659;42.672;23.354;2023-03-04T06:27:20;94321.91;;;8.27;74.00
11692;BME280;33659;42.672;23.354;2023-03-04T06:29:47;94321.28;;;8.30;73.99
11692;BME280;33659;42.672;23.354;2023-03-04T06:32:13;94321.91;;;8.27;74.07
11692;BME280;33659;42.672;23.354;2023-03-04T06:34:40;94326.78;;;8.28;74.12
11692;BME280;33659;42.672;23.354;2023-03-04T06:37:07;94323.09;;;8.29;73.56
11692;BME280;33659;42.672;23.354;2023-03-04T06:39:33;94330.16;;;8.29;73.40
11692;BME280;33659;42.672;23.354;2023-03-04T06:42:02;94329.84;;;8.30;73.59
11692;BME280;33659;42.672;23.354;2023-03-04T06:44:29;94334.44;;;8.33;73.36
11692;BME280;33659;42.672;23.354;2023-03-04T06:46:56;94335.19;;;8.34;73.14
11692;BME280;33659;42.672;23.354;2023-03-04T06:49:23;94333.66;;;8.33;73.09
11692;BME280;33659;42.672;23.354;2023-03-04T06:51:49;94339.03;;;8.28;72.97
11692;BME280;33659;42.672;23.354;2023-03-04T06:54:17;94332.16;;;8.23;73.05
11692;BME280;33659;42.672;23.354;2023-03-04T06:56:44;94347.28;;;8.30;72.63
11692;BME280;33659;42.672;23.354;2023-03-04T06:59:12;94336.28;;;8.33;73.04
11692;BME280;33659;42.672;23.354;2023-03-04T07:01:39;94339.78;;;8.37;72.79
11692;BME280;33659;42.672;23.354;2023-03-04T07:04:05;94341.13;;;8.43;72.84
11692;BME280;33659;42.672;23.354;2023-03-04T07:06:32;94345.84;;;8.50;71.91
11692;BME280;33659;42.672;23.354;2023-03-04T07:08:59;94336.56;;;8.40;71.51
11692;BME280;33659;42.672;23.354;2023-03-04T07:11:25;94343.31;;;8.32;72.08
11692;BME280;33659;42.672;23.354;2023-03-04T07:13:52;94350.22;;;8.28;72.38
11692;BME280;33659;42.672;23.354;2023-03-04T07:16:21;94344.25;;;8.28;72.67
11692;BME280;33659;42.672;23.354;2023-03-04T07:18:49;94350.38;;;8.23;72.07
11692;BME280;33659;42.672;23.354;2023-03-04T07:21:16;94347.50;;;8.16;71.60
11692;BME280;33659;42.672;23.354;2023-03-04T07:23:43;94356.66;;;8.22;71.71
11692;BME280;33659;42.672;23.354;2023-03-04T07:26:10;94350.09;;;8.25;71.08
11692;BME280;33659;42.672;23.354;2023-03-04T07:28:37;94349.75;;;8.26;70.72
11692;BME280;33659;42.672;23.354;2023-03-04T07:31:08;94334.03;;;8.14;71.16
11692;BME280;33659;42.672;23.354;2023-03-04T07:33:36;94354.03;;;8.31;71.17
11692;BME280;33659;42.672;23.354;2023-03-04T07:36:03;94347.44;;;8.33;70.58
11692;BME280;33659;42.672;23.354;2023-03-04T07:38:30;94350.50;;;8.35;70.79
11692;BME280;33659;42.672;23.354;2023-03-04T07:40:57;94348.06;;;8.39;70.31
11692;BME280;33659;42.672;23.354;2023-03-04T07:43:24;94351.25;;;8.45;69.92
11692;BME280;33659;42.672;23.354;2023-03-04T07:45:51;94357.66;;;8.47;70.16
11692;BME280;33659;42.672;23.354;2023-03-04T07:48:17;94343.56;;;8.48;69.70
11692;BME280;33659;42.672;23.354;2023-03-04T07:50:45;94351.63;;;8.55;70.22
11692;BME280;33659;42.672;23.354;2023-03-04T07:53:12;94348.75;;;8.57;69.78
11692;BME280;33659;42.672;23.354;2023-03-04T07:55:38;94345.56;;;8.51;70.51
11692;BME280;33659;42.672;23.354;2023-03-04T07:58:05;94342.94;;;8.51;71.10
11692;BME280;33659;42.672;23.354;2023-03-04T08:00:32;94347.06;;;8.52;70.95
11692;BME280;33659;42.672;23.354;2023-03-04T08:02:58;94346.06;;;8.36;71.27
11692;BME280;33659;42.672;23.354;2023-03-04T08:05:25;94345.59;;;8.34;71.46
11692;BME280;33659;42.672;23.354;2023-03-04T08:07:53;94337.31;;;8.40;71.41
11692;BME280;33659;42.672;23.354;2023-03-04T08:10:22;94333.78;;;8.45;71.59
11692;BME280;33659;42.672;23.354;2023-03-04T08:12:48;94336.13;;;8.38;71.47
11692;BME280;33659;42.672;23.354;2023-03-04T08:15:15;94344.06;;;8.41;71.50
11692;BME280;33659;42.672;23.354;2023-03-04T08:17:42;94339.88;;;8.49;71.49
11692;BME280;33659;42.672;23.354;2023-03-04T08:20:10;94339.13;;;8.49;71.64
11692;BME280;33659;42.672;23.354;2023-03-04T08:22:37;94340.09;;;8.44;71.42
11692;BME280;33659;42.672;23.354;2023-03-04T08:25:05;94342.81;;;8.48;71.15
11692;BME280;33659;42.672;23.354;2023-03-04T08:27:32;94344.16;;;8.54;71.05
11692;BME280;33659;42.672;23.354;2023-03-04T08:29:59;94338.63;;;8.55;71.17
11692;BME280;33659;42.672;23.354;2023-03-04T08:32:25;94342.56;;;8.61;71.04
11692;BME280;33659;42.672;23.354;2023-03-04T08:34:52;94330.66;;;8.60;71.56
11692;BME280;33659;42.672;23.354;2023-03-04T08:37:20;94335.84;;;8.60;71.66
11692;BME280;33659;42.672;23.354;2023-03-04T08:39:47;94339.59;;;8.51;72.07
11692;BME280;33659;42.672;23.354;2023-03-04T08:42:15;94335.59;;;8.53;72.47
11692;BME280;33659;42.672;23.354;2023-03-04T08:44:41;94328.81;;;8.61;72.01
11692;BME280;33659;42.672;23.354;2023-03-04T08:47:08;94333.50;;;8.67;71.99
11692;BME280;33659;42.672;23.354;2023-03-04T08:49:35;94336.53;;;8.78;71.52
11692;BME280;33659;42.672;23.354;2023-03-04T08:52:02;94327.88;;;8.86;71.12
11692;BME280;33659;42.672;23.354;2023-03-04T08:54:29;94330.88;;;8.97;70.58
11692;BME280;33659;42.672;23.354;2023-03-04T08:56:55;94327.88;;;9.07;70.27
11692;BME280;33659;42.672;23.354;2023-03-04T08:59:23;94331.31;;;9.20;69.46
11692;BME280;33659;42.672;23.354;2023-03-04T09:01:50;94337.28;;;9.20;69.16
11692;BME280;33659;42.672;23.354;2023-03-04T09:04:17;94328.41;;;9.21;69.44
11692;BME280;33659;42.672;23.354;2023-03-04T09:06:43;94328.41;;;9.21;69.21
11692;BME280;33659;42.672;23.354;2023-03-04T09:09:10;94323.81;;;9.18;69.26
11692;BME280;33659;42.672;23.354;2023-03-04T09:11:37;94329.03;;;9.18;69.04
11692;BME280;33659;42.672;23.354;2023-03-04T09:14:03;94318.44;;;9.23;69.21
11692;BME280;33659;42.672;23.354;2023-03-04T09:16:31;94319.31;;;9.28;68.82
11692;BME280;33659;42.672;23.354;2023-03-04T09:18:59;94316.25;;;9.26;68.76
11692;BME280;33659;42.672;23.354;2023-03-04T09:21:25;94320.91;;;9.20;68.61
11692;BME280;33659;42.672;23.354;2023-03-04T09:23:52;94317.72;;;9.14;68.43
11692;BME280;33659;42.672;23.354;2023-03-04T09:26:21;94304.69;;;9.14;68.94
11692;BME280;33659;42.672;23.354;2023-03-04T09:28:49;94310.41;;;9.29;68.12
11692;BME280;33659;42.672;23.354;2023-03-04T09:31:16;94302.84;;;9.36;68.24
11692;BME280;33659;42.672;23.354;2023-03-04T09:33:44;94308.53;;;9.50;67.08
11692;BME280;33659;42.672;23.354;2023-03-04T09:36:12;94309.34;;;9.63;66.63
11692;BME280;33659;42.672;23.354;2023-03-04T09:38:41;94305.34;;;9.77;66.00
11692;BME280;33659;42.672;23.354;2023-03-04T09:41:12;94302.66;;;9.86;65.38
11692;BME280;33659;42.672;23.354;2023-03-04T09:43:40;94299.31;;;9.86;64.93
11692;BME280;33659;42.672;23.354;2023-03-04T09:46:09;94297.66;;;9.81;65.01
11692;BME280;33659;42.672;23.354;2023-03-04T09:48:42;94299.28;;;9.73;65.01
11692;BME280;33659;42.672;23.354;2023-03-04T09:51:22;94289.66;;;9.65;65.25
11692;BME280;33659;42.672;23.354;2023-03-04T09:54:05;94292.75;;;9.67;65.51
11692;BME280;33659;42.672;23.354;2023-03-04T09:56:33;94292.75;;;9.67;65.37
11692;BME280;33659;42.672;23.354;2023-03-04T09:59:06;94290.19;;;9.59;65.32
11692;BME280;33659;42.672;23.354;2023-03-04T10:01:40;94274.78;;;9.54;65.83
11692;BME280;33659;42.672;23.354;2023-03-04T10:04:11;94282.94;;;9.64;65.93
11692;BME280;33659;42.672;23.354;2023-03-04T10:06:41;94278.19;;;9.66;66.04
11692;BME280;33659;42.672;23.354;2023-03-04T10:09:11;94277.31;;;9.74;65.86
11692;BME280;33659;42.672;23.354;2023-03-04T10:11:42;94272.66;;;9.80;65.06
11692;BME280;33659;42.672;23.354;2023-03-04T10:14:29;94277.22;;;9.83;64.83
11692;BME280;33659;42.672;23.354;2023-03-04T10:17:04;94273.75;;;9.79;64.55
11692;BME280;33659;42.672;23.354;2023-03-04T10:19:53;94268.28;;;9.72;64.99
11692;BME280;33659;42.672;23.354;2023-03-04T10:22:28;94270.78;;;9.68;64.81
11692;BME280;33659;42.672;23.354;2023-03-04T10:25:04;94263.59;;;9.65;65.70
11692;BME280;33659;42.672;23.354;2023-03-04T10:27:33;94262.31;;;9.71;64.77
11692;BME280;33659;42.672;23.354;2023-03-04T10:30:00;94262.31;;;9.71;64.33
11692;BME280;33659;42.672;23.354;2023-03-04T10:32:27;94259.84;;;9.75;64.43
11692;BME280;33659;42.672;23.354;2023-03-04T10:34:53;94251.44;;;9.69;64.37
11692;BME280;33659;42.672;23.354;2023-03-04T10:37:20;94243.75;;;9.73;65.14
11692;BME280;33659;42.672;23.354;2023-03-04T10:39:48;94210.47;;;9.58;64.24
11692;BME280;33659;42.672;23.354;2023-03-04T10:42:26;94244.06;;;9.84;64.68
11692;BME280;33659;42.672;23.354;2023-03-04T10:44:56;94237.25;;;10.03;64.56
11692;BME280;33659;42.672;23.354;2023-03-04T10:47:24;94227.69;;;10.20;63.58
11692;BME280;33659;42.672;23.354;2023-03-04T10:49:52;94230.66;;;10.30;63.22
11692;BME280;33659;42.672;23.354;2023-03-04T10:52:27;94231.28;;;10.40;62.03
11692;BME280;33659;42.672;23.354;2023-03-04T10:54:57;94226.16;;;10.43;62.56
11692;BME280;33659;42.672;23.354;2023-03-04T10:57:33;94221.03;;;10.47;62.02
11692;BME280;33659;42.672;23.354;2023-03-04T11:00:02;94217.66;;;10.46;61.88
11692;BME280;33659;42.672;23.354;2023-03-04T11:02:31;94221.25;;;10.42;62.23
11692;BME280;33659;42.672;23.354;2023-03-04T11:05:10;94209.63;;;10.39;62.08
11692;BME280;33659;42.672;23.354;2023-03-04T11:07:43;94208.88;;;10.39;62.37
11692;BME280;33659;42.672;23.354;2023-03-04T11:10:15;94203.75;;;10.42;62.13
11692;BME280;33659;42.672;23.354;2023-03-04T11:12:47;94209.09;;;10.34;62.09
11692;BME280;33659;42.672;23.354;2023-03-04T11:15:20;94193.00;;;10.19;62.32
11692;BME280;33659;42.672;23.354;2023-03-04T11:17:51;94192.59;;;9.93;62.96
11692;BME280;33659;42.672;23.354;2023-03-04T11:20:27;94185.72;;;9.76;64.11
11692;BME280;33659;42.672;23.354;2023-03-04T11:22:56;94170.19;;;9.67;64.22
11692;BME280;33659;42.672;23.354;2023-03-04T11:25:29;94173.88;;;9.54;64.67
11692;BME280;33659;42.672;23.354;2023-03-04T11:28:01;94165.16;;;9.38;65.94
11692;BME280;33659;42.672;23.354;2023-03-04T11:30:35;94160.94;;;9.45;66.10
11692;BME280;33659;42.672;23.354;2023-03-04T11:33:15;94159.97;;;9.62;65.18
11692;BME280;33659;42.672;23.354;2023-03-04T11:35:52;94156.63;;;9.74;64.84
11692;BME280;33659;42.672;23.354;2023-03-04T11:38:22;94160.75;;;9.87;64.30
11692;BME280;33659;42.672;23.354;2023-03-04T11:40:54;94152.78;;;9.96;64.15
11692;BME280;33659;42.672;23.354;2023-03-04T11:43:26;94152.38;;;10.06;64.02
11692;BME280;33659;42.672;23.354;2023-03-04T11:48:56;94148.66;;;10.32;62.78
11692;BME280;33659;42.672;23.354;2023-03-04T11:51:32;94146.88;;;10.36;62.95
11692;BME280;33659;42.672;23.354;2023-03-04T11:54:15;94141.44;;;10.41;62.98
11692;BME280;33659;42.672;23.354;2023-03-04T11:56:49;94143.97;;;10.37;62.86
11692;BME280;33659;42.672;23.354;2023-03-04T11:59:24;94138.41;;;10.39;62.88
11692;BME280;33659;42.672;23.354;2023-03-04T12:02:01;94134.47;;;10.45;62.89
11692;BME280;33659;42.672;23.354;2023-03-04T12:05:00;94129.25;;;10.45;62.36
11692;BME280;33659;42.672;23.354;2023-03-04T12:07:44;94124.03;;;10.45;62.29
11692;BME280;33659;42.672;23.354;2023-03-04T12:10:21;94131.41;;;10.43;62.17
11692;BME280;33659;42.672;23.354;2023-03-04T12:13:23;94126.88;;;10.40;62.55
11692;BME280;33659;42.672;23.354;2023-03-04T12:15:57;94125.88;;;10.44;61.91
11692;BME280;33659;42.672;23.354;2023-03-04T12:18:39;94122.72;;;10.51;62.19
11692;BME280;33659;42.672;23.354;2023-03-04T12:21:19;94119.19;;;10.59;61.91
11692;BME280;33659;42.672;23.354;2023-03-04T12:24:17;94116.41;;;10.68;61.69
11692;BME280;33659;42.672;23.354;2023-03-04T12:26:50;94115.84;;;10.74;61.78
11692;BME280;33659;42.672;23.354;2023-03-04T12:29:28;94118.28;;;10.67;62.11
11692;BME280;33659;42.672;23.354;2023-03-04T12:32:03;94111.47;;;10.63;61.96
11692;BME280;33659;42.672;23.354;2023-03-04T12:34:42;94108.31;;;10.57;62.11
11692;BME280;33659;42.672;23.354;2023-03-04T12:37:23;94107.34;;;10.49;62.57
11692;BME280;33659;42.672;23.354;2023-03-04T12:40:13;94098.16;;;10.40;63.01
11692;BME280;33659;42.672;23.354;2023-03-04T12:42:54;94103.22;;;10.48;62.79
11692;BME280;33659;42.672;23.354;2023-03-04T12:45:29;94102.25;;;10.53;62.68
11692;BME280;33659;42.672;23.354;2023-03-04T12:48:02;94092.66;;;10.57;62.32
11692;BME280;33659;42.672;23.354;2023-03-04T12:50:38;94093.50;;;10.61;62.38
11692;BME280;33659;42.672;23.354;2023-03-04T12:53:13;94077.00;;;10.57;62.17
11692;BME280;33659;42.672;23.354;2023-03-04T12:55:44;94089.22;;;10.69;61.91
11692;BME280;33659;42.672;23.354;2023-03-04T12:58:14;94088.63;;;10.75;61.74
11692;BME280;33659;42.672;23.354;2023-03-04T13:00:56;94067.75;;;10.75;61.74
11692;BME280;33659;42.672;23.354;2023-03-04T13:03:39;94077.72;;;10.85;61.53
11692;BME280;33659;42.672;23.354;2023-03-04T13:06:13;94074.34;;;10.85;61.57
11692;BME280;33659;42.672;23.354;2023-03-04T13:08:52;94075.84;;;10.86;61.30
11692;BME280;33659;42.672;23.354;2023-03-04T13:11:54;94067.38;;;10.89;61.13